Laguna Hills, California
Current Conditions -  °F | °C
As of 8:53 AM on Tuesday 21 Oct 2014 (Local Time) from KSNA Reporting Station
Overcast Overcast  
Wind Chill: 70°   Ceiling: 1700
Heat Index: 70°   Visibility: 10mi
Dew Point: 59°   Wind: 0mph
Humidity: 68%   Direction: NA
Pressure: 29.92"   Gusts: NA
Location:  33.6°N, 117.69°W
Report Text: KSNA 211553Z 00000KT 10SM OVC017 21/15 A2992 RMK AO2 SLP132 T02110150
Loading
Personal Weather Stations






























Interactive Weather Map
Tropical Storm Tracking
New forecast layout! Learn more

10-Day Weather Forecast

Advertisements
Track Severe Weather on mobile